Portland, ND (58274)

3:26 AM CDT on July 25, 2014 (GMT -0500)
Grand Forks Air Force Base (KRDR) Elev 912 ft | 47.96 °N, 97.40 °W | Change Station

Current weather conditions updated 28 minutes ago

Overcast
Overcast
68 °F
Feels Like 68 °F
N
8
Wind Variable Wind from ESE

Today is forecast to be Warmer than yesterday.

Today
High -- | Low -- °F
--% Chance of Precip.
Yesterday
High -- | Low -- °F
Precip. -- in
5:58 AM 9:12 PM
Waning Crescent, 2% visible
Pressure 29.77 in
Visibility 10.0 miles
Clouds Overcast 4000 ft
Dew Point 65 °F
Humidity 91%
Rainfall 0.00 in
Snow Depth Not available.
UV 0 out of 12
Pollen 7.40 out of 12
Air Quality Not available.
Flu Activity Not available.
METAR KRDR 250758Z AUTO 12007KT 10SM OVC040 20/19 A2976 RMK AO2 SLP079 T02000185

More Conditions Fewer Conditions

Pressure 29.77 in
Visibility 10.0 miles
Clouds Overcast 4000 ft
Dew Point 65 °F
Humidity 91%
Rainfall 0.00 in
Snow Depth Not available.
UV 0 out of 12
Pollen 7.40 out of 12
Air Quality Not available.
Flu Activity Not available.
METAR KRDR 250758Z AUTO 12007KT 10SM OVC040 20/19 A2976 RMK AO2 SLP079 T02000185

More Conditions Fewer Conditions

10-Day Weather Forecast

Almanac

Astronomy

Jul. 25, 2014 Rise Set
Actual Time 5:58 AM CDT 9:12 PM CDT
Civil Twilight 5:21 AM CDT 9:49 PM CDT
Nautical Twilight 4:33 AM CDT 10:37 PM CDT
Astronomical Twilight 3:31 AM CDT 11:38 PM CDT
Moon 5:02 AM CDT 8:06 PM CDT
Length of Visible Light 16h 27m
Length of Day
15h 13m
Tomorrow will be 2m 23s shorter.
Waning Crescent, 2% of the Moon is Illuminated
Today
Waning Crescent
Jul 26
New
Aug 3
First Quarter
Aug 10
Full
Aug 17
Last Quarter

Today's Extremes

State Highs State Lows

Community

WunderPhotos

Upload Photos

1,737,273 photos uploaded!

Nearby

Snow Depth

Station Depth Elevation
No new snow has been reported.

Earthquake Activity

City Distance Mag. Time & Date
No recent earthquake activity has been reported nearby.
Minimum magnitude displayed is 2.5.

Coastal Water Temperatures

Place Temperature
No Stations Reporting

Nearby Weather Stations

There are no personal weather stations in this area.